Time;durP1;ratioP1;P1;durP2;ratioP2;P2;SDS_P1;SDS_P2;PMS_P1;PMS_P2;Temp;Humidity;BMP_temperature;BMP_pressure;BME280_temperature;BME280_humidity;BME280_pressure;Samples;Min_cycle;Max_cycle;Signal;HPM_P1;HPM_P2
2022/06/19 00:00:40;;;;;;;1.67;0.40;;;16.80;99.90;;;;;;20877268;28;20037;-39
2022/06/19 00:10:41;;;;;;;1.85;1.10;;;16.70;99.90;;;;;;20842229;28;21389;-39
2022/06/19 00:20:42;;;;;;;15.07;1.00;;;16.70;99.90;;;;;;20837314;28;20432;-39
2022/06/19 00:30:43;;;;;;;1.20;0.43;;;16.60;99.90;;;;;;20855897;28;21523;-39
2022/06/19 00:40:44;;;;;;;11.02;0.95;;;16.60;99.90;;;;;;20874197;28;20040;-39
2022/06/19 00:50:49;;;;;;;2.30;0.40;;;16.60;99.90;;;;;;20860342;28;20045;-39
2022/06/19 01:00:57;;;;;;;2.45;0.20;;;16.60;99.90;;;;;;20867111;28;20059;-39
2022/06/19 01:10:58;;;;;;;2.05;0.30;;;16.60;99.90;;;;;;20903980;28;20037;-39
2022/06/19 01:21:22;;;;;;;1.10;0.40;;;16.80;99.90;;;;;;20884319;28;20043;-39
2022/06/19 01:31:41;;;;;;;0.98;0.28;;;16.80;99.90;;;;;;20857121;28;20056;-39
2022/06/19 01:41:42;;;;;;;2.13;0.20;;;16.60;99.90;;;;;;20883977;28;20330;-39
2022/06/19 01:51:43;;;;;;;1.02;0.20;;;16.30;99.90;;;;;;20888236;28;20040;-39
2022/06/19 02:01:45;;;;;;;2.35;0.20;;;16.30;99.90;;;;;;20884237;28;20479;-39
2022/06/19 02:11:47;;;;;;;1.65;0.30;;;16.40;99.90;;;;;;20867869;28;20044;-39
2022/06/19 02:21:52;;;;;;;0.65;0.20;;;16.50;99.90;;;;;;20859221;28;20036;-39
2022/06/19 02:42:08;;;;;;;1.05;0.35;;;16.60;99.90;;;;;;20828015;28;20076;-38
2022/06/19 02:52:11;;;;;;;1.48;0.57;;;16.60;99.90;;;;;;20817162;28;20514;-38
2022/06/19 03:02:13;;;;;;;1.55;0.80;;;16.40;99.90;;;;;;20829728;28;20028;-38
2022/06/19 03:12:14;;;;;;;1.67;0.55;;;16.30;99.90;;;;;;20830513;28;20040;-38
2022/06/19 03:22:15;;;;;;;3.33;1.85;;;16.30;99.90;;;;;;20810269;28;20115;-41
2022/06/19 03:32:16;;;;;;;5.60;0.98;;;16.50;99.90;;;;;;20804270;28;20519;-40
2022/06/19 03:42:18;;;;;;;2.72;0.43;;;16.60;99.90;;;;;;20903418;28;20047;-40
2022/06/19 03:52:20;;;;;;;1.42;0.50;;;16.40;99.90;;;;;;20863309;28;20044;-40
2022/06/19 04:02:21;;;;;;;2.30;0.40;;;16.30;99.90;;;;;;20865331;28;20254;-38
2022/06/19 04:12:22;;;;;;;1.38;0.40;;;16.10;99.90;;;;;;20851552;28;20040;-38
2022/06/19 04:22:23;;;;;;;2.45;0.40;;;16.20;99.90;;;;;;20854596;28;20415;-38
2022/06/19 04:32:24;;;;;;;1.20;0.40;;;16.00;99.90;;;;;;20868931;28;20040;-40
2022/06/19 04:42:25;;;;;;;3.88;0.57;;;15.40;99.90;;;;;;20875121;28;20300;-40
2022/06/19 04:52:26;;;;;;;2.05;0.50;;;14.90;99.90;;;;;;20890298;28;20376;-38
2022/06/19 05:02:27;;;;;;;1.40;0.40;;;14.70;99.90;;;;;;20884529;28;20178;-38
2022/06/19 05:12:28;;;;;;;1.95;0.52;;;14.70;99.90;;;;;;20878434;28;20104;-39
2022/06/19 05:22:30;;;;;;;2.83;0.85;;;14.80;99.90;;;;;;20880266;28;20039;-39
2022/06/19 05:32:32;;;;;;;1.33;0.40;;;14.90;99.90;;;;;;20873017;28;20033;-39
2022/06/19 05:42:33;;;;;;;1.42;0.45;;;15.00;99.90;;;;;;20868441;28;20037;-38
2022/06/19 05:52:34;;;;;;;1.88;0.70;;;15.10;99.90;;;;;;20866045;28;20040;-38
2022/06/19 06:02:35;;;;;;;1.20;0.50;;;15.00;99.90;;;;;;20871069;28;20059;-39
2022/06/19 06:12:36;;;;;;;0.68;0.32;;;14.80;99.90;;;;;;20860124;28;20037;-38
2022/06/19 06:22:37;;;;;;;3.38;0.77;;;14.90;99.90;;;;;;20871432;28;20527;-39
2022/06/19 06:32:38;;;;;;;2.58;1.58;;;14.80;99.90;;;;;;20873091;28;20048;-39
2022/06/19 06:42:39;;;;;;;1.40;0.50;;;14.80;99.90;;;;;;20889396;28;20060;-39
2022/06/19 06:52:40;;;;;;;1.50;0.68;;;14.80;99.90;;;;;;20860825;28;20056;-39
2022/06/19 07:02:42;;;;;;;1.17;0.32;;;14.80;99.90;;;;;;20866637;28;20514;-39
2022/06/19 07:12:43;;;;;;;3.83;0.68;;;14.80;99.90;;;;;;20865365;28;20055;-39
2022/06/19 07:22:45;;;;;;;2.20;0.30;;;14.80;99.90;;;;;;20859734;28;20036;-38
2022/06/19 07:32:46;;;;;;;1.63;0.60;;;14.80;99.90;;;;;;20860056;28;20036;-39
2022/06/19 07:42:47;;;;;;;1.80;0.50;;;14.90;99.90;;;;;;20886591;28;20052;-38
2022/06/19 07:52:49;;;;;;;1.40;0.52;;;14.80;99.90;;;;;;20855409;28;20484;-39
2022/06/19 08:02:52;;;;;;;2.22;0.60;;;14.70;99.90;;;;;;20887071;28;20040;-38
2022/06/19 08:12:55;;;;;;;2.40;1.05;;;14.50;99.90;;;;;;20849089;28;20391;-38
2022/06/19 08:22:56;;;;;;;1.65;0.85;;;14.50;99.90;;;;;;20850460;28;20471;-39
2022/06/19 08:32:57;;;;;;;2.13;0.63;;;14.30;99.90;;;;;;20876045;28;20040;-38
2022/06/19 08:43:23;;;;;;;1.40;0.60;;;14.50;99.90;;;;;;20879434;28;20037;-39
2022/06/19 08:53:46;;;;;;;1.70;0.50;;;14.50;99.90;;;;;;20879302;28;20631;-39
2022/06/19 09:14:35;;;;;;;2.15;0.70;;;14.70;99.90;;;;;;20876932;28;20510;-39
2022/06/19 09:25:06;;;;;;;0.85;0.40;;;14.80;99.90;;;;;;20891422;28;20472;-39
2022/06/19 09:35:20;;;;;;;1.27;0.50;;;15.00;99.90;;;;;;20874410;28;20041;-39
2022/06/19 09:45:29;;;;;;;1.30;0.55;;;15.00;99.90;;;;;;20871007;28;20482;-39
2022/06/19 09:55:37;;;;;;;3.58;0.70;;;15.20;99.90;;;;;;20886959;28;20052;-38
2022/06/19 10:05:50;;;;;;;18.92;1.80;;;15.20;99.90;;;;;;20890681;28;20045;-39
2022/06/19 10:15:55;;;;;;;2.45;0.75;;;15.10;99.90;;;;;;20883079;28;20257;-39
2022/06/19 10:26:25;;;;;;;4.63;0.65;;;15.00;99.90;;;;;;20890900;28;20399;-39
2022/06/19 10:36:30;;;;;;;0.93;0.30;;;14.80;99.90;;;;;;20869025;28;20346;-39
2022/06/19 10:46:32;;;;;;;1.27;0.50;;;14.80;99.90;;;;;;20869892;28;20036;-39
2022/06/19 10:56:43;;;;;;;0.90;0.40;;;14.90;99.90;;;;;;20880179;28;20351;-39
2022/06/19 11:06:52;;;;;;;0.77;0.40;;;15.10;99.90;;;;;;20866754;28;20043;-39
2022/06/19 11:17:06;;;;;;;2.35;0.43;;;15.30;99.90;;;;;;20863111;28;20411;-39
2022/06/19 11:27:16;;;;;;;1.02;0.40;;;15.70;99.90;;;;;;20869122;28;20040;-39
2022/06/19 11:37:33;;;;;;;1.08;0.30;;;16.00;99.90;;;;;;20885955;28;20527;-39
2022/06/19 11:47:46;;;;;;;0.83;0.20;;;16.20;99.90;;;;;;20864455;28;20041;-39
2022/06/19 11:57:50;;;;;;;0.88;0.43;;;16.30;99.90;;;;;;20883621;28;20087;-39
2022/06/19 12:07:52;;;;;;;3.00;0.40;;;16.20;99.90;;;;;;20870541;28;20036;-39
2022/06/19 12:18:16;;;;;;;1.00;0.32;;;16.20;99.90;;;;;;20904257;28;20126;-39
2022/06/19 12:28:34;;;;;;;1.45;0.38;;;16.60;99.90;;;;;;20881937;28;20211;-39
2022/06/19 12:38:35;;;;;;;1.27;0.40;;;16.90;99.90;;;;;;20904185;28;21532;-39
2022/06/19 12:48:46;;;;;;;1.10;0.30;;;17.10;99.90;;;;;;20874530;28;20076;-39
2022/06/19 12:58:59;;;;;;;1.00;0.30;;;17.40;99.90;;;;;;20885974;28;20228;-39
2022/06/19 13:09:22;;;;;;;1.10;0.30;;;17.80;99.90;;;;;;20886833;28;20515;-39
2022/06/19 13:19:22;;;;;;;1.35;0.55;;;17.50;99.90;;;;;;20891004;28;20444;-39
2022/06/19 13:29:50;;;;;;;1.35;0.50;;;17.70;99.90;;;;;;20880273;28;20047;-39
2022/06/19 13:40:05;;;;;;;3.07;0.33;;;18.00;99.90;;;;;;20860183;28;20430;-39
2022/06/19 13:50:21;;;;;;;2.58;0.57;;;18.00;99.90;;;;;;20883186;28;20586;-39
2022/06/19 14:00:31;;;;;;;3.58;0.50;;;17.80;99.90;;;;;;20898489;28;20044;-39
2022/06/19 14:10:38;;;;;;;0.73;0.30;;;17.70;99.90;;;;;;20878628;28;20540;-39
2022/06/19 14:21:22;;;;;;;1.45;0.40;;;17.60;99.90;;;;;;20881701;28;20052;-39
2022/06/19 14:31:25;;;;;;;0.88;0.30;;;17.40;99.90;;;;;;20869170;28;20463;-39
2022/06/19 14:41:38;;;;;;;2.83;0.60;;;17.10;99.90;;;;;;20882730;28;20297;-39
2022/06/19 14:51:39;;;;;;;1.73;0.70;;;16.90;99.90;;;;;;20871577;28;20048;-39
2022/06/19 15:01:42;;;;;;;1.65;0.60;;;16.70;99.90;;;;;;20888615;28;24691;-39
2022/06/19 15:11:45;;;;;;;2.20;0.60;;;16.40;99.90;;;;;;20871954;28;21806;-39
2022/06/19 15:21:48;;;;;;;1.55;0.60;;;16.30;99.90;;;;;;20867354;28;20807;-39
2022/06/19 15:31:56;;;;;;;6.38;0.80;;;16.10;99.90;;;;;;20875843;28;20052;-39
2022/06/19 15:42:17;;;;;;;2.03;0.77;;;15.90;99.90;;;;;;20871912;28;20059;-39
2022/06/19 15:52:23;;;;;;;1.60;0.65;;;16.00;99.90;;;;;;20873807;28;20186;-39
2022/06/19 16:02:28;;;;;;;1.95;0.65;;;16.20;99.90;;;;;;20855261;28;20034;-39
2022/06/19 16:12:34;;;;;;;2.45;0.75;;;16.50;99.90;;;;;;20856993;28;20041;-39
2022/06/19 16:22:36;;;;;;;4.65;1.00;;;16.60;99.90;;;;;;20852363;28;20037;-39
2022/06/19 16:32:43;;;;;;;3.70;0.40;;;16.70;99.90;;;;;;20853440;28;20570;-39
2022/06/19 16:53:12;;;;;;;2.00;0.60;;;17.10;99.90;;;;;;20878446;28;20043;-39
2022/06/19 17:03:25;;;;;;;1.40;0.50;;;17.00;99.90;;;;;;20853991;28;20061;-39
2022/06/19 17:13:28;;;;;;;1.73;0.98;;;16.90;99.90;;;;;;20853190;28;21222;-39
2022/06/19 17:23:29;;;;;;;1.33;0.50;;;17.00;99.90;;;;;;20846973;28;20071;-39
2022/06/19 17:33:32;;;;;;;1.23;0.50;;;16.90;99.90;;;;;;20848840;28;20083;-39
2022/06/19 17:43:47;;;;;;;2.15;0.63;;;16.80;99.90;;;;;;20867650;28;20049;-39
2022/06/19 17:53:49;;;;;;;3.10;0.77;;;16.90;99.90;;;;;;20858242;28;20041;-39
2022/06/19 18:03:56;;;;;;;9.50;1.13;;;16.90;99.90;;;;;;20870739;28;20036;-39
2022/06/19 18:14:20;;;;;;;1.73;0.80;;;16.80;99.90;;;;;;20853118;28;20538;-39
2022/06/19 18:24:23;;;;;;;2.10;0.50;;;16.70;99.90;;;;;;20860149;28;20037;-39
2022/06/19 18:34:24;;;;;;;2.78;0.60;;;16.60;99.90;;;;;;20858161;28;20064;-39
2022/06/19 18:44:27;;;;;;;2.35;0.70;;;16.50;99.90;;;;;;20860859;28;20033;-39
2022/06/19 18:54:34;;;;;;;2.13;0.50;;;16.30;99.90;;;;;;20871315;28;20057;-39
2022/06/19 19:04:36;;;;;;;2.88;0.50;;;16.20;99.90;;;;;;20859370;28;20530;-39
2022/06/19 19:14:38;;;;;;;1.90;0.63;;;16.00;99.90;;;;;;20864958;28;20108;-39
2022/06/19 19:24:40;;;;;;;1.23;0.43;;;16.00;99.90;;;;;;20864061;28;20041;-39
2022/06/19 19:34:41;;;;;;;1.23;0.40;;;15.80;99.90;;;;;;20844303;28;20566;-39
2022/06/19 19:44:42;;;;;;;1.25;0.35;;;15.60;99.90;;;;;;20863321;28;20044;-39
2022/06/19 19:54:45;;;;;;;0.98;0.40;;;15.60;99.90;;;;;;20849839;28;20143;-39
2022/06/19 20:04:46;;;;;;;2.85;0.50;;;15.50;99.90;;;;;;20853300;28;20520;-39
2022/06/19 20:14:47;;;;;;;1.77;0.80;;;15.40;99.90;;;;;;20855105;28;20068;-39
2022/06/19 20:25:10;;;;;;;3.83;0.50;;;15.30;99.90;;;;;;20852977;28;20099;-39
2022/06/19 20:35:29;;;;;;;0.82;0.22;;;15.30;99.90;;;;;;20848022;28;20037;-39
2022/06/19 20:45:31;;;;;;;0.73;0.30;;;15.20;99.90;;;;;;20841351;28;21466;-39
2022/06/19 20:55:37;;;;;;;1.20;0.40;;;15.10;99.90;;;;;;20843724;28;20028;-39
2022/06/19 21:05:43;;;;;;;1.48;0.38;;;15.10;99.90;;;;;;20840533;28;20075;-39
2022/06/19 21:15:44;;;;;;;0.63;0.20;;;15.00;99.90;;;;;;20845871;28;22333;-39
2022/06/19 21:25:46;;;;;;;1.75;0.50;;;14.90;99.90;;;;;;20875535;28;20603;-39
2022/06/19 21:35:49;;;;;;;0.70;0.30;;;14.80;99.90;;;;;;20865186;28;20052;-39
2022/06/19 21:45:50;;;;;;;4.97;0.55;;;14.20;99.90;;;;;;20859376;28;20036;-39
2022/06/19 21:55:54;;;;;;;0.85;0.35;;;13.90;99.90;;;;;;20855562;28;20076;-39
2022/06/19 22:06:10;;;;;;;1.13;0.43;;;13.70;99.90;;;;;;20856578;28;20037;-39
2022/06/19 22:16:14;;;;;;;2.35;0.40;;;13.60;99.90;;;;;;20855153;28;20099;-39
2022/06/19 22:26:19;;;;;;;3.05;0.57;;;13.50;99.90;;;;;;20852957;28;20043;-39
2022/06/19 22:36:32;;;;;;;1.60;0.65;;;13.60;99.90;;;;;;20850314;28;20076;-39
2022/06/19 22:46:34;;;;;;;0.98;0.43;;;13.50;99.90;;;;;;20853231;28;20141;-39
2022/06/19 22:56:35;;;;;;;2.05;0.50;;;13.60;99.90;;;;;;20862370;28;20047;-39
2022/06/19 23:06:36;;;;;;;0.98;0.38;;;13.60;99.90;;;;;;20855771;28;20029;-39
2022/06/19 23:16:42;;;;;;;2.03;0.40;;;13.60;99.90;;;;;;20859419;28;20048;-39
2022/06/19 23:26:48;;;;;;;1.10;0.50;;;13.50;99.90;;;;;;20868711;28;20321;-39
2022/06/19 23:36:53;;;;;;;2.30;0.40;;;13.50;99.90;;;;;;20873659;28;20068;-39
2022/06/19 23:46:55;;;;;;;1.98;0.57;;;13.50;99.90;;;;;;20871723;28;20033;-39
2022/06/19 23:56:57;;;;;;;1.02;0.30;;;13.50;99.90;;;;;;20872309;28;20041;-39
